Time;durP1;ratioP1;P1;durP2;ratioP2;P2;SDS_P1;SDS_P2;PMS_P1;PMS_P2;Temp;Humidity;BMP_temperature;BMP_pressure;BME280_temperature;BME280_humidity;BME280_pressure;Samples;Min_cycle;Max_cycle;Signal;HPM_P1;HPM_P2
2023/02/19 00:02:20;;;;;;;19.65;13.90;;;;;;;6.31;100.00;99235.00;5076196;28;20032;-65
2023/02/19 00:04:45;;;;;;;18.25;13.40;;;;;;;5.98;100.00;99155.44;5081643;28;20035;-65
2023/02/19 00:07:10;;;;;;;19.48;13.13;;;;;;;6.44;100.00;99211.75;5064082;28;20081;-65
2023/02/19 00:09:36;;;;;;;21.10;13.80;;;;;;;6.47;100.00;99221.06;5072590;28;20033;-65
2023/02/19 00:12:01;;;;;;;21.98;13.55;;;;;;;6.47;100.00;99234.00;5057961;28;20037;-65
2023/02/19 00:14:27;;;;;;;20.42;12.65;;;;;;;6.46;100.00;99220.25;5069011;28;20123;-64
2023/02/19 00:16:52;;;;;;;19.77;12.50;;;;;;;6.07;100.00;99221.16;5073103;28;20036;-65
2023/02/19 00:19:19;;;;;;;22.02;13.55;;;;;;;6.07;100.00;99211.63;5080166;28;20076;-66
2023/02/19 00:21:45;;;;;;;19.90;12.60;;;;;;;6.22;100.00;99220.13;5080653;28;20064;-65
2023/02/19 00:24:11;;;;;;;18.10;12.43;;;;;;;6.08;100.00;99215.06;5079354;28;20058;-66
2023/02/19 00:26:38;;;;;;;18.63;11.90;;;;;;;5.90;100.00;99217.06;5064519;28;20058;-66
2023/02/19 00:29:04;;;;;;;18.45;12.20;;;;;;;5.92;100.00;99203.13;5065498;28;20040;-65
2023/02/19 00:31:33;;;;;;;18.77;12.77;;;;;;;5.93;100.00;99209.94;5078228;28;20145;-65
2023/02/19 00:34:00;;;;;;;;;;;;;;;5.93;100.00;99219.44;5060957;28;20051;-64
2023/02/19 00:36:26;;;;;;;18.60;11.68;;;;;;;5.96;100.00;99220.09;5082376;28;19916;-65
2023/02/19 00:38:52;;;;;;;19.90;12.02;;;;;;;5.81;100.00;99182.34;5067261;28;20043;-64
2023/02/19 00:41:19;;;;;;;19.33;12.48;;;;;;;6.02;100.00;99223.19;5082446;28;20172;-64
2023/02/19 00:43:45;;;;;;;19.98;12.63;;;;;;;5.99;100.00;99218.22;5072917;28;20028;-65
2023/02/19 00:46:10;;;;;;;20.05;11.88;;;;;;;6.02;100.00;99210.28;5078330;28;20039;-64
2023/02/19 00:48:35;;;;;;;20.45;13.45;;;;;;;5.58;100.00;99155.47;5065204;28;20020;-64
2023/02/19 00:51:01;;;;;;;17.00;11.57;;;;;;;5.91;100.00;99203.22;5076228;28;20535;-63
2023/02/19 00:53:27;;;;;;;20.00;12.93;;;;;;;5.87;100.00;99204.34;5080286;28;20036;-65
2023/02/19 00:55:52;;;;;;;19.48;12.10;;;;;;;5.88;100.00;99209.41;5080162;28;20503;-65
2023/02/19 00:58:18;;;;;;;18.40;12.57;;;;;;;5.79;100.00;99220.34;5076679;28;20085;-65
2023/02/19 01:00:43;;;;;;;16.02;11.63;;;;;;;5.62;100.00;99211.09;5073755;28;20035;-65
2023/02/19 01:03:08;;;;;;;18.63;11.75;;;;;;;5.80;100.00;99209.06;5076269;28;20028;-65
2023/02/19 01:05:34;;;;;;;18.92;12.32;;;;;;;5.62;100.00;99192.22;5079600;28;20123;-65
2023/02/19 01:07:59;;;;;;;15.40;11.60;;;;;;;5.68;100.00;99212.47;5074463;28;20452;-66
2023/02/19 01:10:24;;;;;;;17.52;11.88;;;;;;;5.73;100.00;99218.13;5071486;28;20028;-66
2023/02/19 01:12:50;;;;;;;17.73;12.23;;;;;;;5.72;100.00;99201.84;5072505;28;20495;-65
2023/02/19 01:15:15;;;;;;;19.33;11.88;;;;;;;5.23;100.00;99142.25;5070821;28;20036;-65
2023/02/19 01:17:41;;;;;;;17.95;11.38;;;;;;;5.60;100.00;99205.19;5076881;28;20028;-68
2023/02/19 01:20:06;;;;;;;16.83;11.77;;;;;;;5.51;100.00;99195.47;5071429;28;20138;-64
2023/02/19 01:22:32;;;;;;;17.92;11.82;;;;;;;5.38;100.00;99198.00;5074354;28;20034;-64
2023/02/19 01:24:57;;;;;;;16.88;11.05;;;;;;;5.24;100.00;99200.63;5063788;28;20428;-67
2023/02/19 01:27:23;;;;;;;19.75;11.75;;;;;;;5.17;100.00;99195.88;5071138;28;20100;-67
2023/02/19 01:29:48;;;;;;;19.38;12.15;;;;;;;5.32;100.00;99199.22;5076771;28;20148;-64
2023/02/19 01:32:13;;;;;;;21.00;12.18;;;;;;;5.09;100.00;99190.38;5078534;28;20043;-65
2023/02/19 01:34:39;;;;;;;18.60;11.05;;;;;;;5.03;100.00;99208.78;5058432;28;20206;-65
2023/02/19 01:37:06;;;;;;;19.20;11.73;;;;;;;5.10;100.00;99199.75;5078039;28;20031;-65
2023/02/19 01:39:32;;;;;;;20.58;12.05;;;;;;;5.12;100.00;99207.38;5074127;28;20124;-65
2023/02/19 01:41:57;;;;;;;18.13;11.95;;;;;;;5.20;100.00;99200.84;5077592;28;20032;-65
2023/02/19 01:44:22;;;;;;;18.55;11.63;;;;;;;5.24;100.00;99206.63;5074840;28;22051;-67
2023/02/19 01:46:50;;;;;;;18.25;11.50;;;;;;;5.08;100.00;99190.47;5077311;28;20031;-65
2023/02/19 01:49:27;;;;;;;17.02;11.85;;;;;;;5.13;100.00;99193.56;5075297;28;20043;-65
2023/02/19 01:51:59;;;;;;;18.83;11.35;;;;;;;5.15;100.00;99197.72;5075165;28;20084;-65
2023/02/19 01:54:28;;;;;;;18.40;11.93;;;;;;;5.13;100.00;99191.84;5080044;28;20036;-65
2023/02/19 01:56:54;;;;;;;16.98;11.27;;;;;;;5.19;100.00;99181.13;5075435;28;20032;-65
2023/02/19 01:59:20;;;;;;;18.15;11.73;;;;;;;5.23;100.00;99192.06;5081328;28;20032;-65
2023/02/19 02:01:46;;;;;;;18.60;12.52;;;;;;;5.09;100.00;99169.75;5070589;28;20421;-65
2023/02/19 02:04:12;;;;;;;21.30;12.93;;;;;;;5.19;100.00;99190.63;5075461;28;20044;-65
2023/02/19 02:06:48;;;;;;;19.33;12.52;;;;;;;5.18;100.00;99182.06;5077118;28;20112;-65
2023/02/19 02:11:59;;;;;;;17.80;11.57;;;;;;;4.96;100.00;99163.69;5070096;28;20133;-65
2023/02/19 02:14:28;;;;;;;20.17;11.57;;;;;;;5.05;100.00;99159.72;5056611;28;20048;-66
2023/02/19 02:17:07;;;;;;;20.15;12.75;;;;;;;5.10;100.00;99161.09;5067660;28;20024;-65
2023/02/19 02:19:51;;;;;;;19.73;11.52;;;;;;;4.98;100.00;99154.09;5082305;28;20100;-64
2023/02/19 02:22:20;;;;;;;17.98;11.13;;;;;;;5.02;100.00;99155.59;5073536;28;20039;-65
2023/02/19 02:25:00;;;;;;;19.95;12.25;;;;;;;4.88;100.00;99159.03;5069875;28;20035;-67
2023/02/19 02:27:40;;;;;;;18.77;11.82;;;;;;;4.73;100.00;99154.81;5081403;28;20073;-65
2023/02/19 02:30:17;;;;;;;17.27;11.40;;;;;;;4.69;100.00;99148.19;5076140;28;20568;-67
2023/02/19 02:32:55;;;;;;;18.45;11.63;;;;;;;4.74;100.00;99144.41;5075334;28;20024;-66
2023/02/19 02:35:34;;;;;;;17.17;11.68;;;;;;;4.71;100.00;99133.47;5069576;28;20060;-65
2023/02/19 02:38:04;;;;;;;20.20;11.57;;;;;;;4.74;100.00;99141.81;5069392;28;20101;-65
2023/02/19 02:40:30;;;;;;;18.90;12.55;;;;;;;4.58;100.00;99139.38;5068902;28;20025;-65
2023/02/19 02:42:59;;;;;;;19.27;12.40;;;;;;;4.48;100.00;99147.75;5056626;28;20514;-65
2023/02/19 02:45:33;;;;;;;18.48;12.30;;;;;;;4.56;100.00;99155.84;5080282;28;20114;-67
2023/02/19 02:48:20;;;;;;;16.70;11.80;;;;;;;4.63;100.00;99147.63;5073488;28;20032;-65
2023/02/19 02:51:18;;;;;;;19.73;11.80;;;;;;;4.35;100.00;99094.44;5074303;28;20116;-64
2023/02/19 02:56:33;;;;;;;17.63;11.82;;;;;;;4.37;100.00;99128.63;5080251;28;20074;-66
2023/02/19 02:59:01;;;;;;;16.58;11.60;;;;;;;4.46;100.00;99121.28;5076460;28;20020;-65
2023/02/19 03:04:25;;;;;;;19.42;11.23;;;;;;;4.46;100.00;99118.69;5071241;28;20066;-66
2023/02/19 03:06:51;;;;;;;17.13;11.93;;;;;;;3.99;100.00;99059.69;5069238;28;20721;-65
2023/02/19 03:09:28;;;;;;;17.17;11.35;;;;;;;4.28;100.00;99133.50;5079110;28;20054;-65
2023/02/19 03:20:23;;;;;;;19.52;11.15;;;;;;;4.31;100.00;99108.41;5075513;28;20047;-65
2023/02/19 03:22:50;;;;;;;17.00;11.35;;;;;;;3.81;100.00;99051.31;5078927;28;20024;-66
2023/02/19 03:28:08;;;;;;;17.50;11.38;;;;;;;4.28;100.00;99126.59;5076038;28;20062;-65
2023/02/19 03:30:39;;;;;;;19.08;11.35;;;;;;;3.94;100.00;99078.88;5074193;28;20028;-65
2023/02/19 03:33:39;;;;;;;17.35;10.88;;;;;;;4.22;100.00;99132.94;5060115;28;20422;-66
2023/02/19 03:36:06;;;;;;;16.50;11.05;;;;;;;4.14;100.00;99111.97;5039072;28;20503;-66
2023/02/19 03:38:44;;;;;;;15.77;11.38;;;;;;;3.85;100.00;99060.53;5064100;28;20497;-66
2023/02/19 03:41:15;;;;;;;18.92;11.63;;;;;;;4.28;100.00;99129.19;5098954;28;20031;-65
2023/02/19 03:43:52;;;;;;;16.92;11.93;;;;;;;4.04;100.00;99119.44;5087664;28;20032;-64
2023/02/19 03:46:27;;;;;;;18.52;11.68;;;;;;;4.06;100.00;99129.63;5071288;28;20490;-66
2023/02/19 03:48:57;;;;;;;19.45;12.48;;;;;;;4.12;100.00;99118.16;5081151;28;20028;-66
2023/02/19 03:51:30;;;;;;;16.83;10.93;;;;;;;4.17;100.00;99132.41;5090840;28;20191;-66
2023/02/19 03:54:01;;;;;;;17.48;11.80;;;;;;;4.15;100.00;99125.69;5086134;28;20046;-65
2023/02/19 03:56:42;;;;;;;19.85;12.40;;;;;;;4.23;100.00;99129.47;5101556;28;20500;-65
2023/02/19 03:59:12;;;;;;;17.42;11.18;;;;;;;4.22;100.00;99129.56;5091675;28;20101;-65
2023/02/19 04:01:41;;;;;;;16.38;11.18;;;;;;;3.91;100.00;99095.34;5061834;28;20123;-64
2023/02/19 04:04:28;;;;;;;19.50;11.48;;;;;;;4.07;100.00;99120.16;5078956;28;20127;-65
2023/02/19 04:06:54;;;;;;;17.10;10.80;;;;;;;4.15;100.00;99107.69;5078574;28;20063;-66
2023/02/19 04:09:21;;;;;;;17.52;11.65;;;;;;;4.02;100.00;99105.00;5069008;28;20031;-65
2023/02/19 04:11:49;;;;;;;20.77;11.15;;;;;;;4.02;100.00;99103.25;5070757;28;20397;-65
2023/02/19 04:14:22;;;;;;;19.80;11.98;;;;;;;4.03;100.00;99110.06;5075566;28;20024;-65
2023/02/19 04:17:04;;;;;;;18.73;11.65;;;;;;;4.08;100.00;99111.53;5067756;28;20028;-65
2023/02/19 04:19:33;;;;;;;17.88;11.27;;;;;;;3.92;100.00;99107.28;5089034;28;20032;-65
2023/02/19 04:21:58;;;;;;;18.50;11.77;;;;;;;3.91;100.00;99125.41;5073909;28;20131;-65
2023/02/19 04:24:28;;;;;;;19.00;11.90;;;;;;;3.53;100.00;99082.16;5085946;28;20039;-65
2023/02/19 04:26:54;;;;;;;17.90;12.05;;;;;;;3.82;100.00;99111.31;5075458;28;20051;-65
2023/02/19 04:29:20;;;;;;;18.17;11.10;;;;;;;3.78;100.00;99113.25;5077001;28;20038;-66
2023/02/19 04:31:45;;;;;;;19.58;11.52;;;;;;;3.80;100.00;99133.75;5098595;28;20599;-66
2023/02/19 04:34:11;;;;;;;18.88;11.93;;;;;;;3.85;100.00;99139.44;5082743;28;20067;-65
2023/02/19 04:36:36;;;;;;;17.55;11.32;;;;;;;3.99;100.00;99136.88;5087457;28;20481;-65
2023/02/19 04:39:02;;;;;;;18.73;11.20;;;;;;;3.95;100.00;99122.53;5080320;28;20065;-65
2023/02/19 04:41:27;;;;;;;20.88;12.40;;;;;;;3.72;100.00;99092.19;5061180;28;20023;-66
2023/02/19 04:43:53;;;;;;;19.00;12.18;;;;;;;3.77;100.00;99108.19;5099824;28;20711;-67
2023/02/19 04:46:18;;;;;;;18.95;11.40;;;;;;;3.91;100.00;99108.22;5084749;28;20099;-65
2023/02/19 04:48:43;;;;;;;18.42;11.25;;;;;;;3.97;100.00;99101.88;5066841;28;20032;-67
2023/02/19 04:51:09;;;;;;;21.27;12.63;;;;;;;4.04;100.00;99110.88;5082402;28;20635;-65
2023/02/19 04:53:35;;;;;;;17.95;11.68;;;;;;;3.84;100.00;99109.50;5066416;28;20081;-65
2023/02/19 04:56:09;;;;;;;18.65;11.80;;;;;;;3.68;100.00;99101.00;5077798;28;20102;-65
2023/02/19 04:58:35;;;;;;;20.55;12.00;;;;;;;3.75;100.00;99097.16;5085173;27;20066;-68
2023/02/19 05:01:00;;;;;;;19.00;12.20;;;;;;;3.69;100.00;99075.22;5077895;28;20142;-67
2023/02/19 05:03:26;;;;;;;18.52;11.45;;;;;;;4.00;100.00;99125.69;5102860;27;20034;-66
2023/02/19 05:05:51;;;;;;;17.10;11.77;;;;;;;3.79;100.00;99124.34;5103203;28;20023;-65
2023/02/19 05:08:16;;;;;;;19.60;12.35;;;;;;;3.62;100.00;99084.19;5074592;28;20067;-65
2023/02/19 05:10:42;;;;;;;18.30;11.93;;;;;;;3.91;100.00;99109.97;5071671;28;20028;-65
2023/02/19 05:13:08;;;;;;;21.42;12.60;;;;;;;3.94;100.00;99110.63;5065783;28;20044;-65
2023/02/19 05:15:33;;;;;;;21.85;12.18;;;;;;;3.93;100.00;99105.56;5074901;28;20131;-67
2023/02/19 05:17:58;;;;;;;19.70;12.32;;;;;;;3.98;100.00;99116.38;5051574;28;20035;-65
2023/02/19 05:20:24;;;;;;;19.02;12.43;;;;;;;3.95;100.00;99112.25;5066396;28;20039;-65
2023/02/19 05:22:49;;;;;;;17.45;11.98;;;;;;;3.92;100.00;99102.13;5086989;28;20132;-68
2023/02/19 05:25:16;;;;;;;22.65;12.98;;;;;;;3.85;100.00;99106.84;5076155;28;20048;-65
2023/02/19 05:27:41;;;;;;;18.85;12.70;;;;;;;3.82;100.00;99107.00;5062860;28;20034;-65
2023/02/19 05:30:07;;;;;;;20.92;12.07;;;;;;;3.96;100.00;99100.22;5063922;28;20067;-67
2023/02/19 05:32:34;;;;;;;22.27;12.10;;;;;;;4.01;100.00;99111.88;5073042;28;20023;-68
2023/02/19 05:34:59;;;;;;;19.33;13.07;;;;;;;3.95;100.00;99119.16;5063901;28;20515;-66
2023/02/19 05:37:25;;;;;;;19.67;12.63;;;;;;;3.98;100.00;99114.66;5101560;28;20044;-67
2023/02/19 05:39:50;;;;;;;19.23;12.75;;;;;;;3.91;100.00;99094.53;5061569;28;20038;-66
2023/02/19 05:42:15;;;;;;;25.23;14.05;;;;;;;3.82;100.00;99088.19;5083576;28;20035;-66
2023/02/19 05:44:41;;;;;;;20.73;12.68;;;;;;;3.75;100.00;99087.69;5076888;28;20116;-66
2023/02/19 05:47:06;;;;;;;22.65;13.20;;;;;;;3.85;100.00;99093.13;5082698;28;20032;-66
2023/02/19 05:49:32;;;;;;;20.05;12.40;;;;;;;3.93;100.00;99097.84;5062093;28;20028;-66
2023/02/19 05:51:57;;;;;;;19.65;12.98;;;;;;;3.91;100.00;99108.22;5079786;28;20372;-67
2023/02/19 05:54:23;;;;;;;19.35;12.32;;;;;;;3.81;100.00;99110.47;5082016;28;20042;-67
2023/02/19 05:56:48;;;;;;;22.73;13.73;;;;;;;3.24;100.00;99048.66;5059869;28;20028;-65
2023/02/19 05:59:19;;;;;;;22.13;13.77;;;;;;;3.61;100.00;99111.66;5079040;28;20159;-66
2023/02/19 06:01:45;;;;;;;21.88;12.90;;;;;;;3.43;100.00;99120.41;5064605;28;20051;-65
2023/02/19 06:04:11;;;;;;;22.50;13.65;;;;;;;3.46;100.00;99122.81;5058289;28;20375;-65
2023/02/19 06:06:36;;;;;;;21.05;13.13;;;;;;;3.52;100.00;99112.16;5076826;28;20030;-65
2023/02/19 06:09:03;;;;;;;20.98;13.52;;;;;;;3.39;100.00;99077.78;5077319;28;20636;-67
2023/02/19 06:11:29;;;;;;;23.00;13.63;;;;;;;3.59;100.00;99089.50;5073342;28;20027;-66
2023/02/19 06:13:54;;;;;;;21.67;13.52;;;;;;;3.83;100.00;99108.66;5091429;28;20035;-66
2023/02/19 06:16:20;;;;;;;21.17;13.98;;;;;;;3.81;100.00;99110.47;5067365;28;20075;-65
2023/02/19 06:18:46;;;;;;;19.27;12.75;;;;;;;3.78;100.00;99104.72;5077680;28;20032;-65
2023/02/19 06:21:12;;;;;;;21.85;14.05;;;;;;;3.88;100.00;99117.84;5056669;28;21481;-64
2023/02/19 06:23:38;;;;;;;22.60;14.07;;;;;;;3.91;100.00;99107.41;5064012;28;20239;-66
2023/02/19 06:26:10;;;;;;;22.98;14.50;;;;;;;3.87;100.00;99111.91;5065487;28;20483;-66
2023/02/19 06:28:36;;;;;;;23.35;14.30;;;;;;;3.87;100.00;99111.91;5078054;28;20039;-66
2023/02/19 06:31:02;;;;;;;22.38;14.80;;;;;;;3.78;100.00;99118.41;5070839;28;20023;-66
2023/02/19 06:33:28;;;;;;;22.30;15.05;;;;;;;3.58;100.00;99070.69;5088080;28;20043;-66
2023/02/19 06:35:53;;;;;;;26.38;15.23;;;;;;;4.07;100.00;99115.00;5057995;28;20074;-67
2023/02/19 06:38:22;;;;;;;24.80;15.00;;;;;;;3.78;100.00;99054.09;5085841;28;20028;-65
2023/02/19 06:40:47;;;;;;;23.35;14.57;;;;;;;4.26;100.00;99117.34;5081494;28;20028;-66
2023/02/19 06:43:13;;;;;;;24.30;14.60;;;;;;;4.24;100.00;99102.78;5084966;28;20035;-66
2023/02/19 06:45:38;;;;;;;29.08;16.02;;;;;;;4.20;100.00;99097.94;5084492;28;20027;-66
2023/02/19 06:48:04;;;;;;;25.75;15.77;;;;;;;4.26;100.00;99114.75;5083772;28;20562;-66
2023/02/19 06:50:30;;;;;;;24.92;15.95;;;;;;;4.21;100.00;99105.53;5063285;28;20038;-66
2023/02/19 06:52:55;;;;;;;25.95;16.73;;;;;;;4.03;100.00;99058.59;5072231;28;20484;-66
2023/02/19 06:55:20;;;;;;;24.80;15.07;;;;;;;4.28;100.00;99097.47;5069335;28;20101;-66
2023/02/19 06:57:46;;;;;;;24.55;14.88;;;;;;;4.36;100.00;99095.25;5064299;28;20044;-65
2023/02/19 07:00:12;;;;;;;24.02;14.55;;;;;;;4.37;100.00;99092.56;5073079;28;20028;-66
2023/02/19 07:02:37;;;;;;;23.77;15.68;;;;;;;4.48;100.00;99104.81;5063517;28;20019;-65
2023/02/19 07:05:03;;;;;;;24.73;15.45;;;;;;;4.18;100.00;99045.69;5080327;28;20059;-66
2023/02/19 07:07:28;;;;;;;23.92;15.13;;;;;;;4.58;100.00;99098.19;5064993;28;20473;-65
2023/02/19 07:09:53;;;;;;;26.20;15.10;;;;;;;4.60;100.00;99095.50;5080395;28;20034;-66
2023/02/19 07:12:19;;;;;;;23.33;15.70;;;;;;;4.48;100.00;99078.22;5103045;28;20039;-65
2023/02/19 07:14:44;;;;;;;23.77;15.48;;;;;;;4.41;100.00;99058.00;5062785;28;20528;-66
2023/02/19 07:17:09;;;;;;;25.15;15.10;;;;;;;4.63;100.00;99090.16;5057696;28;20043;-66
2023/02/19 07:19:35;;;;;;;26.48;16.42;;;;;;;4.41;100.00;99106.09;5057899;28;20556;-65
2023/02/19 07:22:00;;;;;;;26.70;16.65;;;;;;;4.47;100.00;99108.28;5062780;28;20043;-65
2023/02/19 07:24:26;;;;;;;25.83;17.45;;;;;;;4.62;100.00;99102.22;5078848;28;20047;-66
2023/02/19 07:26:51;;;;;;;28.35;17.83;;;;;;;4.69;100.00;99110.41;5061106;28;20024;-66
2023/02/19 07:29:16;;;;;;;26.88;17.27;;;;;;;4.65;100.00;99114.06;5068237;28;21416;-66
2023/02/19 07:31:42;;;;;;;27.65;17.20;;;;;;;4.66;100.00;99110.56;5074936;28;20866;-66
2023/02/19 07:34:07;;;;;;;27.80;15.98;;;;;;;4.10;100.00;99019.63;5075779;28;20043;-65
2023/02/19 07:36:33;;;;;;;27.38;16.92;;;;;;;4.45;100.00;99124.75;5075366;28;20076;-66
2023/02/19 07:38:59;;;;;;;29.88;18.05;;;;;;;4.32;100.00;99120.34;5080079;28;20568;-66
2023/02/19 07:41:25;;;;;;;27.15;17.30;;;;;;;4.30;100.00;99132.50;5075919;28;20107;-66
2023/02/19 07:43:50;;;;;;;26.95;16.90;;;;;;;4.47;100.00;99117.75;5078762;28;20031;-65
2023/02/19 07:46:16;;;;;;;26.42;17.55;;;;;;;4.56;100.00;99112.91;5081239;28;20027;-67
2023/02/19 07:48:42;;;;;;;27.23;17.58;;;;;;;4.71;100.00;99126.56;5098284;28;20067;-66
2023/02/19 07:51:11;;;;;;;30.63;18.45;;;;;;;4.77;100.00;99121.03;5083640;28;20987;-66
2023/02/19 07:53:36;;;;;;;26.83;17.60;;;;;;;4.62;100.00;99127.16;5090802;28;21477;-69
2023/02/19 07:56:04;;;;;;;29.02;18.02;;;;;;;4.59;100.00;99133.28;5095125;28;21085;-65
2023/02/19 07:58:30;;;;;;;29.83;18.10;;;;;;;4.39;100.00;99075.28;5073330;28;20541;-66
2023/02/19 08:00:55;;;;;;;27.77;18.38;;;;;;;4.92;100.00;99123.56;5063010;28;20032;-66
2023/02/19 08:03:21;;;;;;;27.58;18.05;;;;;;;4.68;100.00;99070.09;5060894;28;20074;-66
2023/02/19 08:05:48;;;;;;;28.63;18.77;;;;;;;5.11;100.00;99128.38;5076243;28;20379;-67
2023/02/19 08:08:15;;;;;;;26.67;18.60;;;;;;;4.94;100.00;99117.41;5077384;28;20023;-66
2023/02/19 08:13:33;;;;;;;27.42;18.23;;;;;;;4.99;100.00;99110.19;5045778;28;20036;-65
2023/02/19 08:15:58;;;;;;;30.42;18.05;;;;;;;5.14;100.00;99126.44;5093539;28;20388;-66
2023/02/19 08:18:25;;;;;;;29.27;18.15;;;;;;;5.16;100.00;99116.84;5093318;28;20042;-66
2023/02/19 08:20:51;;;;;;;33.30;19.90;;;;;;;5.18;100.00;99115.03;5074807;28;20034;-66
2023/02/19 08:23:19;;;;;;;31.10;19.58;;;;;;;5.23;100.00;99106.16;5068206;28;20475;-65
2023/02/19 08:25:45;;;;;;;31.15;19.73;;;;;;;5.24;100.00;99097.50;5068883;28;20032;-66
2023/02/19 08:28:11;;;;;;;31.05;19.90;;;;;;;5.27;100.00;99115.34;5067055;28;21082;-66
2023/02/19 08:30:39;;;;;;;30.90;19.52;;;;;;;5.22;100.00;99107.94;5074534;28;20032;-66
2023/02/19 08:33:06;;;;;;;33.55;21.65;;;;;;;5.34;100.00;99104.53;5043332;28;20797;-66
2023/02/19 08:35:34;;;;;;;31.92;21.25;;;;;;;5.39;100.00;99094.75;5066273;28;20020;-65
2023/02/19 08:37:59;;;;;;;31.85;19.83;;;;;;;5.39;100.00;99094.75;5070219;28;20032;-67
2023/02/19 08:40:25;;;;;;;32.45;19.92;;;;;;;5.57;100.00;99107.38;5061932;28;20061;-66
2023/02/19 08:42:51;;;;;;;34.45;20.92;;;;;;;5.16;100.00;99054.97;5063242;28;20464;-67
2023/02/19 08:45:17;;;;;;;30.33;19.40;;;;;;;5.48;100.00;99097.69;5083184;28;20088;-64
2023/02/19 08:47:42;;;;;;;35.67;20.33;;;;;;;5.16;100.00;99042.09;5082456;28;20671;-66
2023/02/19 08:50:08;;;;;;;34.60;21.05;;;;;;;5.22;100.00;99034.88;5067816;28;20114;-67
2023/02/19 08:52:34;;;;;;;32.20;20.45;;;;;;;5.56;100.00;99098.81;5069635;27;20483;-65
2023/02/19 08:55:00;;;;;;;32.45;19.92;;;;;;;5.53;100.00;99096.44;5085227;28;20024;-65
2023/02/19 08:57:28;;;;;;;32.30;20.35;;;;;;;5.50;100.00;99100.97;5083291;28;20023;-65
2023/02/19 08:59:56;;;;;;;35.25;20.92;;;;;;;5.19;100.00;99057.38;5057590;28;20380;-64
2023/02/19 09:02:22;;;;;;;35.75;21.08;;;;;;;5.51;100.00;99112.94;5078159;27;20081;-64
2023/02/19 09:04:48;;;;;;;33.85;19.52;;;;;;;5.68;100.00;99106.69;5057212;28;20061;-63
2023/02/19 09:07:14;;;;;;;33.08;21.15;;;;;;;5.72;100.00;99100.38;5066046;28;20111;-64
2023/02/19 09:09:39;;;;;;;36.70;21.60;;;;;;;5.45;100.00;99049.69;5077351;28;20031;-62
2023/02/19 09:12:09;;;;;;;32.92;21.10;;;;;;;5.81;100.00;99096.38;5099234;27;20075;-64
2023/02/19 09:14:35;;;;;;;30.77;20.42;;;;;;;5.99;100.00;99102.06;5080162;28;20027;-62
2023/02/19 09:17:01;;;;;;;33.03;21.17;;;;;;;6.07;100.00;99100.63;5069204;28;20796;-63
2023/02/19 09:19:27;;;;;;;32.60;20.95;;;;;;;6.22;100.00;99105.66;5097747;28;20047;-64
2023/02/19 10:26:57;;;;;;;34.70;21.27;;;;;;;6.53;100.00;99081.97;5057445;27;20066;-65
2023/02/19 10:29:23;;;;;;;32.83;20.80;;;;;;;6.51;100.00;99076.06;5043912;28;20052;-66
2023/02/19 10:32:19;;;;;;;31.33;20.45;;;;;;;6.22;100.00;99018.69;5035218;28;20038;-64
2023/02/19 10:34:45;;;;;;;31.73;20.40;;;;;;;6.61;100.00;99068.50;5052835;28;20032;-67
2023/02/19 10:37:14;;;;;;;33.47;21.02;;;;;;;6.74;100.00;99069.28;5053182;28;20123;-65
2023/02/19 10:39:46;;;;;;;32.47;21.25;;;;;;;6.77;100.00;99077.75;5039916;28;20672;-66
2023/02/19 10:42:20;;;;;;;33.17;20.77;;;;;;;6.72;100.00;99070.34;5037152;28;20032;-65
2023/02/19 12:43:23;;;;;;;26.65;18.27;;;;;;;9.08;100.00;98870.97;5052901;28;20710;-66
2023/02/19 12:46:02;;;;;;;28.55;17.27;;;;;;;9.14;100.00;98850.50;5063509;28;20814;-66
2023/02/19 12:48:33;;;;;;;25.47;15.97;;;;;;;9.51;100.00;98859.50;5064502;28;20603;-66
2023/02/19 12:51:09;;;;;;;28.90;17.45;;;;;;;9.36;100.00;98815.78;5064404;28;20062;-65
2023/02/19 12:53:39;;;;;;;27.48;16.85;;;;;;;9.85;100.00;98860.03;5065780;28;20065;-66
2023/02/19 12:56:13;;;;;;;26.92;16.05;;;;;;;9.88;100.00;98854.56;5065365;28;20487;-64
2023/02/19 12:58:51;;;;;;;22.55;15.50;;;;;;;10.15;100.00;98872.09;5067535;28;20031;-65
2023/02/19 13:01:28;;;;;;;24.33;14.77;;;;;;;10.29;100.00;98857.06;5072967;28;20024;-65
2023/02/19 13:04:18;;;;;;;25.25;16.80;;;;;;;10.27;100.00;98846.78;5075779;28;20499;-64
2023/02/19 13:06:55;;;;;;;25.08;15.70;;;;;;;10.24;100.00;98843.66;5071613;28;20020;-67
2023/02/19 13:09:37;;;;;;;22.48;14.75;;;;;;;10.20;100.00;98824.91;5075594;28;20020;-65
2023/02/19 13:12:11;;;;;;;22.48;14.32;;;;;;;10.40;100.00;98838.75;5082448;28;20027;-65
2023/02/19 13:14:41;;;;;;;22.00;14.75;;;;;;;10.47;100.00;98841.63;5060529;28;20032;-65
2023/02/19 13:17:18;;;;;;;22.65;14.88;;;;;;;10.40;100.00;98815.34;5076006;28;20078;-64
2023/02/19 13:19:46;;;;;;;20.08;13.52;;;;;;;10.66;98.31;98832.97;5073805;28;20047;-66
2023/02/19 13:25:08;;;;;;;19.30;12.77;;;;;;;10.98;95.94;98839.63;5081156;28;20379;-65
2023/02/19 13:27:56;;;;;;;21.65;14.38;;;;;;;11.04;95.63;98839.03;5068948;28;20028;-65
2023/02/19 13:30:33;;;;;;;17.45;12.73;;;;;;;11.05;96.41;98825.91;5080755;28;20066;-65
2023/02/19 13:33:12;;;;;;;20.05;12.30;;;;;;;11.13;95.52;98822.56;5066308;28;20118;-66
2023/02/19 13:35:56;;;;;;;17.20;11.77;;;;;;;11.23;95.17;98827.75;5085594;28;20844;-65
2023/02/19 13:38:22;;;;;;;18.05;11.93;;;;;;;11.14;95.68;98814.63;5081219;28;20028;-67
2023/02/19 13:40:55;;;;;;;20.77;13.68;;;;;;;11.19;95.24;98814.22;5061454;28;20269;-68
2023/02/19 13:43:34;;;;;;;19.77;12.48;;;;;;;11.23;94.94;98814.75;5063439;28;20037;-67
2023/02/19 13:46:02;;;;;;;16.80;11.30;;;;;;;11.27;94.01;98809.09;5059239;28;20139;-66
2023/02/19 13:48:30;;;;;;;17.65;12.10;;;;;;;11.29;93.60;98799.34;5068403;28;20024;-66
2023/02/19 13:51:20;;;;;;;17.55;12.27;;;;;;;11.33;93.66;98807.69;5065554;28;20024;-66
2023/02/19 13:53:47;;;;;;;19.75;11.57;;;;;;;11.41;93.15;98806.97;5062827;28;20036;-68
2023/02/19 13:56:32;;;;;;;16.80;10.60;;;;;;;11.54;93.18;98802.25;5073596;28;20640;-66
2023/02/19 13:59:00;;;;;;;17.17;10.73;;;;;;;11.67;92.52;98794.88;5061987;28;20028;-68
2023/02/19 14:01:50;;;;;;;20.27;12.25;;;;;;;11.79;92.24;98792.06;5075273;28;20092;-65
2023/02/19 14:04:43;;;;;;;17.38;11.02;;;;;;;11.39;93.28;98736.84;5086298;28;20130;-65
2023/02/19 14:07:08;;;;;;;17.27;11.48;;;;;;;11.65;92.98;98773.38;5071198;28;20039;-64
2023/02/19 14:09:38;;;;;;;16.33;10.27;;;;;;;11.71;92.90;98772.78;5074874;28;20758;-64
2023/02/19 14:12:08;;;;;;;16.95;10.20;;;;;;;11.72;93.59;98778.84;5075264;28;20035;-64
2023/02/19 14:14:46;;;;;;;17.77;11.95;;;;;;;11.82;93.34;98771.75;5091360;28;20134;-66
2023/02/19 14:17:36;;;;;;;16.10;10.75;;;;;;;11.77;93.17;98770.56;5070338;28;20020;-66
2023/02/19 14:20:16;;;;;;;15.82;11.20;;;;;;;11.81;91.98;98771.91;5093483;28;20562;-65
2023/02/19 14:22:46;;;;;;;16.20;11.00;;;;;;;11.78;91.77;98774.81;5092234;28;20210;-65
2023/02/19 14:25:29;;;;;;;18.75;11.65;;;;;;;11.47;94.53;98769.94;5070431;28;20032;-64
2023/02/19 14:28:16;;;;;;;15.45;10.93;;;;;;;11.50;94.68;98775.69;5074321;28;20517;-66
2023/02/19 14:30:50;;;;;;;16.15;9.65;;;;;;;11.61;93.50;98772.06;5073359;28;20473;-63
2023/02/19 14:33:18;;;;;;;14.70;9.88;;;;;;;11.70;91.75;98765.94;5055725;28;20024;-64
2023/02/19 14:35:46;;;;;;;15.02;10.93;;;;;;;11.88;91.57;98762.50;5069106;28;20688;-66
2023/02/19 14:38:47;;;;;;;16.48;10.07;;;;;;;11.97;90.32;98760.84;5074292;28;20789;-67
2023/02/19 14:41:13;;;;;;;16.13;10.52;;;;;;;11.93;89.61;98760.31;5052736;28;20035;-64
2023/02/19 14:43:39;;;;;;;15.65;10.13;;;;;;;11.93;89.75;98757.72;5095112;28;20411;-66
2023/02/19 14:46:29;;;;;;;17.48;9.85;;;;;;;11.91;90.41;98744.03;5057791;28;20032;-65
2023/02/19 14:48:54;;;;;;;15.23;10.02;;;;;;;12.11;89.63;98761.13;5077301;28;20133;-67
2023/02/19 14:51:20;;;;;;;14.88;10.00;;;;;;;12.00;88.26;98714.44;5064736;28;20123;-67
2023/02/19 14:53:45;;;;;;;16.15;10.48;;;;;;;12.27;87.35;98750.00;5090677;28;20446;-66
2023/02/19 14:56:24;;;;;;;19.48;11.10;;;;;;;12.16;88.02;98733.81;5078080;28;21840;-66